sensor_id;sensor_type;location;lat;lon;timestamp;temperature;humidity
53268;DHT22;39156;51.176;6.738;2023-05-19T00:01:27;11.70;55.20
53268;DHT22;39156;51.176;6.738;2023-05-19T00:03:55;11.70;55.40
53268;DHT22;39156;51.176;6.738;2023-05-19T00:06:25;11.70;55.60
53268;DHT22;39156;51.176;6.738;2023-05-19T00:09:03;11.70;55.80
53268;DHT22;39156;51.176;6.738;2023-05-19T00:11:31;11.60;56.00
53268;DHT22;39156;51.176;6.738;2023-05-19T00:13:58;11.60;55.70
53268;DHT22;39156;51.176;6.738;2023-05-19T00:16:25;11.70;56.10
53268;DHT22;39156;51.176;6.738;2023-05-19T00:18:52;11.60;56.00
53268;DHT22;39156;51.176;6.738;2023-05-19T00:21:18;11.70;56.60
53268;DHT22;39156;51.176;6.738;2023-05-19T00:23:45;11.60;56.60
53268;DHT22;39156;51.176;6.738;2023-05-19T00:26:11;11.60;56.60
53268;DHT22;39156;51.176;6.738;2023-05-19T00:28:37;11.60;56.80
53268;DHT22;39156;51.176;6.738;2023-05-19T00:31:04;11.60;56.90
53268;DHT22;39156;51.176;6.738;2023-05-19T00:33:30;11.50;57.10
53268;DHT22;39156;51.176;6.738;2023-05-19T00:35:58;11.50;57.00
53268;DHT22;39156;51.176;6.738;2023-05-19T00:38:29;11.40;57.30
53268;DHT22;39156;51.176;6.738;2023-05-19T00:40:56;11.50;57.50
53268;DHT22;39156;51.176;6.738;2023-05-19T00:43:22;11.40;57.60
53268;DHT22;39156;51.176;6.738;2023-05-19T00:45:47;11.50;57.70
53268;DHT22;39156;51.176;6.738;2023-05-19T00:48:13;11.40;57.80
53268;DHT22;39156;51.176;6.738;2023-05-19T00:50:39;11.40;58.30
53268;DHT22;39156;51.176;6.738;2023-05-19T00:55:36;11.30;59.10
53268;DHT22;39156;51.176;6.738;2023-05-19T00:58:05;11.40;59.10
53268;DHT22;39156;51.176;6.738;2023-05-19T01:00:31;11.30;59.40
53268;DHT22;39156;51.176;6.738;2023-05-19T01:02:58;11.30;58.70
53268;DHT22;39156;51.176;6.738;2023-05-19T01:05:23;11.20;59.30
53268;DHT22;39156;51.176;6.738;2023-05-19T01:07:50;11.20;59.60
53268;DHT22;39156;51.176;6.738;2023-05-19T01:10:18;11.20;60.00
53268;DHT22;39156;51.176;6.738;2023-05-19T01:12:44;11.00;60.10
53268;DHT22;39156;51.176;6.738;2023-05-19T01:15:11;11.00;59.60
53268;DHT22;39156;51.176;6.738;2023-05-19T01:18:04;11.00;60.20
53268;DHT22;39156;51.176;6.738;2023-05-19T01:20:39;11.00;61.50
53268;DHT22;39156;51.176;6.738;2023-05-19T01:23:27;10.90;61.50
53268;DHT22;39156;51.176;6.738;2023-05-19T01:26:21;10.80;62.40
53268;DHT22;39156;51.176;6.738;2023-05-19T01:29:21;10.80;62.50
53268;DHT22;39156;51.176;6.738;2023-05-19T01:31:55;10.70;63.10
53268;DHT22;39156;51.176;6.738;2023-05-19T01:34:25;10.80;62.80
53268;DHT22;39156;51.176;6.738;2023-05-19T01:36:53;10.70;63.00
53268;DHT22;39156;51.176;6.738;2023-05-19T01:39:20;10.70;63.30
53268;DHT22;39156;51.176;6.738;2023-05-19T01:41:47;10.60;63.30
53268;DHT22;39156;51.176;6.738;2023-05-19T01:44:14;10.60;63.40
53268;DHT22;39156;51.176;6.738;2023-05-19T01:46:40;10.50;63.40
53268;DHT22;39156;51.176;6.738;2023-05-19T01:49:06;10.50;63.60
53268;DHT22;39156;51.176;6.738;2023-05-19T01:51:32;10.50;63.70
53268;DHT22;39156;51.176;6.738;2023-05-19T01:53:58;10.40;64.00
53268;DHT22;39156;51.176;6.738;2023-05-19T01:56:40;10.40;64.10
53268;DHT22;39156;51.176;6.738;2023-05-19T01:59:41;10.40;65.10
53268;DHT22;39156;51.176;6.738;2023-05-19T02:02:28;10.30;65.10
53268;DHT22;39156;51.176;6.738;2023-05-19T02:05:26;10.20;64.90
53268;DHT22;39156;51.176;6.738;2023-05-19T02:08:44;10.30;65.20
53268;DHT22;39156;51.176;6.738;2023-05-19T02:14:50;10.30;65.00
53268;DHT22;39156;51.176;6.738;2023-05-19T02:17:22;10.10;65.20
53268;DHT22;39156;51.176;6.738;2023-05-19T02:19:49;10.10;65.00
53268;DHT22;39156;51.176;6.738;2023-05-19T02:22:15;10.10;64.80
53268;DHT22;39156;51.176;6.738;2023-05-19T02:24:40;10.00;64.80
53268;DHT22;39156;51.176;6.738;2023-05-19T02:27:06;10.10;64.80
53268;DHT22;39156;51.176;6.738;2023-05-19T02:29:32;10.00;64.60
53268;DHT22;39156;51.176;6.738;2023-05-19T02:31:59;10.00;64.60
53268;DHT22;39156;51.176;6.738;2023-05-19T02:34:25;10.10;65.00
53268;DHT22;39156;51.176;6.738;2023-05-19T02:36:51;10.00;64.90
53268;DHT22;39156;51.176;6.738;2023-05-19T02:41:47;9.90;65.20
53268;DHT22;39156;51.176;6.738;2023-05-19T02:44:13;10.00;65.00
53268;DHT22;39156;51.176;6.738;2023-05-19T02:46:39;10.00;65.20
53268;DHT22;39156;51.176;6.738;2023-05-19T02:49:05;9.90;65.10
53268;DHT22;39156;51.176;6.738;2023-05-19T02:51:30;9.90;65.20
53268;DHT22;39156;51.176;6.738;2023-05-19T02:53:56;9.90;65.20
53268;DHT22;39156;51.176;6.738;2023-05-19T02:56:22;9.90;65.40
53268;DHT22;39156;51.176;6.738;2023-05-19T02:58:47;9.90;65.60
53268;DHT22;39156;51.176;6.738;2023-05-19T03:01:13;9.90;65.50
53268;DHT22;39156;51.176;6.738;2023-05-19T03:03:39;9.90;65.50
53268;DHT22;39156;51.176;6.738;2023-05-19T03:06:05;9.90;65.60
53268;DHT22;39156;51.176;6.738;2023-05-19T03:08:34;9.90;65.70
53268;DHT22;39156;51.176;6.738;2023-05-19T03:11:01;9.80;65.70
53268;DHT22;39156;51.176;6.738;2023-05-19T03:13:27;9.80;65.60
53268;DHT22;39156;51.176;6.738;2023-05-19T03:15:53;9.90;66.40
53268;DHT22;39156;51.176;6.738;2023-05-19T03:18:21;9.70;66.00
53268;DHT22;39156;51.176;6.738;2023-05-19T03:24:35;9.70;66.60
53268;DHT22;39156;51.176;6.738;2023-05-19T03:33:34;9.60;66.20
53268;DHT22;39156;51.176;6.738;2023-05-19T03:41:17;9.70;66.90
53268;DHT22;39156;51.176;6.738;2023-05-19T03:44:29;9.50;66.90
53268;DHT22;39156;51.176;6.738;2023-05-19T03:46:55;11.40;67.50
53268;DHT22;39156;51.176;6.738;2023-05-19T03:51:57;9.60;66.20
53268;DHT22;39156;51.176;6.738;2023-05-19T03:54:23;9.50;66.70
53268;DHT22;39156;51.176;6.738;2023-05-19T04:08:39;9.60;65.80
53268;DHT22;39156;51.176;6.738;2023-05-19T04:14:50;9.70;67.20
53268;DHT22;39156;51.176;6.738;2023-05-19T04:17:16;9.70;66.60
53268;DHT22;39156;51.176;6.738;2023-05-19T04:19:42;9.70;66.70
53268;DHT22;39156;51.176;6.738;2023-05-19T04:22:07;9.70;66.80
53268;DHT22;39156;51.176;6.738;2023-05-19T04:24:33;9.70;66.90
53268;DHT22;39156;51.176;6.738;2023-05-19T04:26:59;9.70;66.80
53268;DHT22;39156;51.176;6.738;2023-05-19T04:29:29;9.80;67.00
53268;DHT22;39156;51.176;6.738;2023-05-19T04:31:55;9.90;67.50
53268;DHT22;39156;51.176;6.738;2023-05-19T04:34:25;10.10;67.80
53268;DHT22;39156;51.176;6.738;2023-05-19T04:36:53;10.30;67.80
53268;DHT22;39156;51.176;6.738;2023-05-19T04:39:19;10.70;67.60
53268;DHT22;39156;51.176;6.738;2023-05-19T04:41:45;11.00;67.10
53268;DHT22;39156;51.176;6.738;2023-05-19T04:44:11;11.30;66.70
53268;DHT22;39156;51.176;6.738;2023-05-19T04:46:37;11.70;66.30
53268;DHT22;39156;51.176;6.738;2023-05-19T04:49:03;12.10;65.80
53268;DHT22;39156;51.176;6.738;2023-05-19T04:51:29;12.30;65.00
53268;DHT22;39156;51.176;6.738;2023-05-19T04:53:56;12.70;64.50
53268;DHT22;39156;51.176;6.738;2023-05-19T04:56:22;13.10;64.00
53268;DHT22;39156;51.176;6.738;2023-05-19T04:58:48;13.40;63.50
53268;DHT22;39156;51.176;6.738;2023-05-19T05:01:14;13.80;63.30
53268;DHT22;39156;51.176;6.738;2023-05-19T05:03:40;14.10;62.60
53268;DHT22;39156;51.176;6.738;2023-05-19T05:06:06;14.40;61.80
53268;DHT22;39156;51.176;6.738;2023-05-19T05:08:33;14.80;60.90
53268;DHT22;39156;51.176;6.738;2023-05-19T05:10:59;15.00;60.10
53268;DHT22;39156;51.176;6.738;2023-05-19T05:13:25;15.20;59.60
53268;DHT22;39156;51.176;6.738;2023-05-19T05:15:51;15.40;59.10
53268;DHT22;39156;51.176;6.738;2023-05-19T05:18:18;15.60;59.00
53268;DHT22;39156;51.176;6.738;2023-05-19T05:20:44;16.00;58.70
53268;DHT22;39156;51.176;6.738;2023-05-19T05:23:11;16.20;58.20
53268;DHT22;39156;51.176;6.738;2023-05-19T05:25:42;16.50;58.10
53268;DHT22;39156;51.176;6.738;2023-05-19T05:28:08;16.80;57.40
53268;DHT22;39156;51.176;6.738;2023-05-19T05:30:35;17.10;57.20
53268;DHT22;39156;51.176;6.738;2023-05-19T05:33:01;17.50;56.60
53268;DHT22;39156;51.176;6.738;2023-05-19T05:35:27;17.80;56.20
53268;DHT22;39156;51.176;6.738;2023-05-19T05:37:53;18.20;55.40
53268;DHT22;39156;51.176;6.738;2023-05-19T05:40:19;18.60;55.10
53268;DHT22;39156;51.176;6.738;2023-05-19T05:42:45;18.90;54.40
53268;DHT22;39156;51.176;6.738;2023-05-19T05:45:11;19.30;53.80
53268;DHT22;39156;51.176;6.738;2023-05-19T05:47:37;19.70;53.40
53268;DHT22;39156;51.176;6.738;2023-05-19T05:50:12;20.00;52.20
53268;DHT22;39156;51.176;6.738;2023-05-19T05:52:40;20.30;50.60
53268;DHT22;39156;51.176;6.738;2023-05-19T05:55:07;20.70;49.70
53268;DHT22;39156;51.176;6.738;2023-05-19T05:57:33;21.00;49.70
53268;DHT22;39156;51.176;6.738;2023-05-19T06:00:02;21.20;49.30
53268;DHT22;39156;51.176;6.738;2023-05-19T06:02:32;21.50;48.60
53268;DHT22;39156;51.176;6.738;2023-05-19T06:04:57;21.70;47.80
53268;DHT22;39156;51.176;6.738;2023-05-19T06:07:23;22.00;47.40
53268;DHT22;39156;51.176;6.738;2023-05-19T06:09:49;22.20;46.70
53268;DHT22;39156;51.176;6.738;2023-05-19T06:12:14;22.40;46.00
53268;DHT22;39156;51.176;6.738;2023-05-19T06:14:40;22.70;45.80
53268;DHT22;39156;51.176;6.738;2023-05-19T06:17:06;22.90;45.20
53268;DHT22;39156;51.176;6.738;2023-05-19T06:19:31;23.30;49.60
53268;DHT22;39156;51.176;6.738;2023-05-19T06:21:57;23.50;45.60
53268;DHT22;39156;51.176;6.738;2023-05-19T06:24:23;23.80;49.00
53268;DHT22;39156;51.176;6.738;2023-05-19T06:26:48;24.10;44.50
53268;DHT22;39156;51.176;6.738;2023-05-19T06:29:14;24.40;43.00
53268;DHT22;39156;51.176;6.738;2023-05-19T06:31:41;24.70;42.20
53268;DHT22;39156;51.176;6.738;2023-05-19T06:34:06;24.80;41.50
53268;DHT22;39156;51.176;6.738;2023-05-19T06:36:34;25.10;46.20
53268;DHT22;39156;51.176;6.738;2023-05-19T06:39:00;25.30;40.40
53268;DHT22;39156;51.176;6.738;2023-05-19T06:41:25;25.50;39.40
53268;DHT22;39156;51.176;6.738;2023-05-19T06:43:51;25.50;38.60
53268;DHT22;39156;51.176;6.738;2023-05-19T06:46:17;25.60;38.00
53268;DHT22;39156;51.176;6.738;2023-05-19T06:48:42;25.60;41.00
53268;DHT22;39156;51.176;6.738;2023-05-19T06:51:08;25.60;37.60
53268;DHT22;39156;51.176;6.738;2023-05-19T06:53:34;25.60;37.90
53268;DHT22;39156;51.176;6.738;2023-05-19T06:56:00;25.60;39.70
53268;DHT22;39156;51.176;6.738;2023-05-19T06:58:26;25.60;36.30
53268;DHT22;39156;51.176;6.738;2023-05-19T07:00:52;25.50;38.30
53268;DHT22;39156;51.176;6.738;2023-05-19T07:03:17;25.40;35.90
53268;DHT22;39156;51.176;6.738;2023-05-19T07:05:43;25.20;36.00
53268;DHT22;39156;51.176;6.738;2023-05-19T07:08:08;25.10;36.20
53268;DHT22;39156;51.176;6.738;2023-05-19T07:10:34;24.90;36.50
53268;DHT22;39156;51.176;6.738;2023-05-19T07:13:00;24.90;38.60
53268;DHT22;39156;51.176;6.738;2023-05-19T07:15:26;24.90;36.00
53268;DHT22;39156;51.176;6.738;2023-05-19T07:17:51;24.90;37.50
53268;DHT22;39156;51.176;6.738;2023-05-19T07:20:17;24.80;35.60
53268;DHT22;39156;51.176;6.738;2023-05-19T07:22:42;24.90;36.60
53268;DHT22;39156;51.176;6.738;2023-05-19T07:25:08;24.80;35.50
53268;DHT22;39156;51.176;6.738;2023-05-19T07:27:34;24.70;37.40
53268;DHT22;39156;51.176;6.738;2023-05-19T07:30:00;24.70;36.50
53268;DHT22;39156;51.176;6.738;2023-05-19T07:32:28;24.80;36.60
53268;DHT22;39156;51.176;6.738;2023-05-19T07:34:53;24.90;36.40
53268;DHT22;39156;51.176;6.738;2023-05-19T07:37:19;25.10;38.20
53268;DHT22;39156;51.176;6.738;2023-05-19T07:39:45;25.20;36.30
53268;DHT22;39156;51.176;6.738;2023-05-19T07:42:10;25.50;38.30
53268;DHT22;39156;51.176;6.738;2023-05-19T07:44:36;25.60;35.50
53268;DHT22;39156;51.176;6.738;2023-05-19T07:47:02;25.70;34.80
53268;DHT22;39156;51.176;6.738;2023-05-19T07:49:27;25.80;34.60
53268;DHT22;39156;51.176;6.738;2023-05-19T07:51:53;25.90;36.70
53268;DHT22;39156;51.176;6.738;2023-05-19T07:54:19;25.90;35.20
53268;DHT22;39156;51.176;6.738;2023-05-19T07:56:45;25.90;37.00
53268;DHT22;39156;51.176;6.738;2023-05-19T07:59:13;26.00;34.60
53268;DHT22;39156;51.176;6.738;2023-05-19T08:01:39;26.10;34.40
53268;DHT22;39156;51.176;6.738;2023-05-19T08:04:05;26.10;34.50
53268;DHT22;39156;51.176;6.738;2023-05-19T08:06:30;26.20;36.40
53268;DHT22;39156;51.176;6.738;2023-05-19T08:08:56;26.30;34.90
53268;DHT22;39156;51.176;6.738;2023-05-19T08:11:22;26.40;35.00
53268;DHT22;39156;51.176;6.738;2023-05-19T08:13:47;26.60;35.10
53268;DHT22;39156;51.176;6.738;2023-05-19T08:16:14;26.80;35.00
53268;DHT22;39156;51.176;6.738;2023-05-19T08:18:40;27.00;34.70
53268;DHT22;39156;51.176;6.738;2023-05-19T08:21:06;27.20;33.90
53268;DHT22;39156;51.176;6.738;2023-05-19T08:23:32;27.30;33.70
53268;DHT22;39156;51.176;6.738;2023-05-19T08:25:59;27.50;33.60
53268;DHT22;39156;51.176;6.738;2023-05-19T08:28:24;27.60;32.90
53268;DHT22;39156;51.176;6.738;2023-05-19T08:30:50;27.60;32.30
53268;DHT22;39156;51.176;6.738;2023-05-19T08:33:17;27.60;32.10
53268;DHT22;39156;51.176;6.738;2023-05-19T08:35:45;27.60;32.20
53268;DHT22;39156;51.176;6.738;2023-05-19T08:38:10;27.60;32.00
53268;DHT22;39156;51.176;6.738;2023-05-19T08:40:36;27.60;32.10
53268;DHT22;39156;51.176;6.738;2023-05-19T08:43:05;27.60;32.20
53268;DHT22;39156;51.176;6.738;2023-05-19T08:45:32;27.60;32.20
53268;DHT22;39156;51.176;6.738;2023-05-19T08:47:58;27.70;31.40
53268;DHT22;39156;51.176;6.738;2023-05-19T08:50:34;27.60;31.50
53268;DHT22;39156;51.176;6.738;2023-05-19T08:53:11;27.60;31.70
53268;DHT22;39156;51.176;6.738;2023-05-19T08:55:58;27.50;31.20
53268;DHT22;39156;51.176;6.738;2023-05-19T08:58:26;27.50;31.50
53268;DHT22;39156;51.176;6.738;2023-05-19T09:00:52;27.50;32.00
53268;DHT22;39156;51.176;6.738;2023-05-19T09:03:20;27.30;31.00
53268;DHT22;39156;51.176;6.738;2023-05-19T09:05:47;27.30;31.30
53268;DHT22;39156;51.176;6.738;2023-05-19T09:08:13;27.10;31.30
53268;DHT22;39156;51.176;6.738;2023-05-19T09:10:38;27.10;31.20
53268;DHT22;39156;51.176;6.738;2023-05-19T09:13:04;27.00;32.20
53268;DHT22;39156;51.176;6.738;2023-05-19T09:15:31;27.00;31.20
53268;DHT22;39156;51.176;6.738;2023-05-19T09:18:09;26.80;31.40
53268;DHT22;39156;51.176;6.738;2023-05-19T09:20:37;26.80;32.00
53268;DHT22;39156;51.176;6.738;2023-05-19T09:23:04;26.70;31.40
53268;DHT22;39156;51.176;6.738;2023-05-19T09:25:30;26.60;31.30
53268;DHT22;39156;51.176;6.738;2023-05-19T09:27:56;26.50;31.50
53268;DHT22;39156;51.176;6.738;2023-05-19T09:30:22;26.50;32.50
53268;DHT22;39156;51.176;6.738;2023-05-19T09:32:50;26.50;31.50
53268;DHT22;39156;51.176;6.738;2023-05-19T09:35:16;26.40;31.50
53268;DHT22;39156;51.176;6.738;2023-05-19T09:37:44;26.30;31.70
53268;DHT22;39156;51.176;6.738;2023-05-19T09:40:13;26.30;31.90
53268;DHT22;39156;51.176;6.738;2023-05-19T09:42:40;26.40;31.80
53268;DHT22;39156;51.176;6.738;2023-05-19T09:45:07;26.40;31.70
53268;DHT22;39156;51.176;6.738;2023-05-19T09:47:40;26.50;31.90
53268;DHT22;39156;51.176;6.738;2023-05-19T09:50:08;26.50;31.40
53268;DHT22;39156;51.176;6.738;2023-05-19T09:52:38;26.50;31.70
53268;DHT22;39156;51.176;6.738;2023-05-19T09:55:09;26.60;31.20
53268;DHT22;39156;51.176;6.738;2023-05-19T09:57:36;26.50;31.10
53268;DHT22;39156;51.176;6.738;2023-05-19T10:00:06;26.40;31.30
53268;DHT22;39156;51.176;6.738;2023-05-19T10:02:42;26.30;31.40
53268;DHT22;39156;51.176;6.738;2023-05-19T10:05:14;26.20;31.20
53268;DHT22;39156;51.176;6.738;2023-05-19T10:07:51;25.90;31.30
53268;DHT22;39156;51.176;6.738;2023-05-19T10:10:19;25.80;31.70
53268;DHT22;39156;51.176;6.738;2023-05-19T10:12:46;25.60;31.50
53268;DHT22;39156;51.176;6.738;2023-05-19T10:15:14;25.50;31.30
53268;DHT22;39156;51.176;6.738;2023-05-19T10:17:42;25.20;31.30
53268;DHT22;39156;51.176;6.738;2023-05-19T10:20:11;24.90;31.30
53268;DHT22;39156;51.176;6.738;2023-05-19T10:22:42;24.60;31.70
53268;DHT22;39156;51.176;6.738;2023-05-19T10:25:10;24.30;31.90
53268;DHT22;39156;51.176;6.738;2023-05-19T10:27:53;24.00;32.00
53268;DHT22;39156;51.176;6.738;2023-05-19T10:30:45;23.70;32.30
53268;DHT22;39156;51.176;6.738;2023-05-19T10:33:15;23.40;32.40
53268;DHT22;39156;51.176;6.738;2023-05-19T10:36:11;23.20;32.90
53268;DHT22;39156;51.176;6.738;2023-05-19T10:38:55;23.00;32.70
53268;DHT22;39156;51.176;6.738;2023-05-19T10:41:52;22.80;33.10
53268;DHT22;39156;51.176;6.738;2023-05-19T10:44:50;22.70;33.30
53268;DHT22;39156;51.176;6.738;2023-05-19T10:47:34;22.50;33.70
53268;DHT22;39156;51.176;6.738;2023-05-19T10:49:59;22.50;33.80
53268;DHT22;39156;51.176;6.738;2023-05-19T10:52:25;22.40;34.00
53268;DHT22;39156;51.176;6.738;2023-05-19T10:54:51;22.30;34.00
53268;DHT22;39156;51.176;6.738;2023-05-19T10:57:27;22.20;34.00
53268;DHT22;39156;51.176;6.738;2023-05-19T10:59:56;22.20;34.20
53268;DHT22;39156;51.176;6.738;2023-05-19T11:02:40;22.10;34.60
53268;DHT22;39156;51.176;6.738;2023-05-19T11:05:16;22.10;34.30
53268;DHT22;39156;51.176;6.738;2023-05-19T11:07:55;22.10;34.40
53268;DHT22;39156;51.176;6.738;2023-05-19T11:10:24;22.00;34.50
53268;DHT22;39156;51.176;6.738;2023-05-19T11:12:50;22.10;34.40
53268;DHT22;39156;51.176;6.738;2023-05-19T11:15:16;22.10;34.20
53268;DHT22;39156;51.176;6.738;2023-05-19T11:17:46;22.20;34.90
53268;DHT22;39156;51.176;6.738;2023-05-19T11:25:46;22.30;34.30
53268;DHT22;39156;51.176;6.738;2023-05-19T11:28:17;22.20;34.60
53268;DHT22;39156;51.176;6.738;2023-05-19T11:30:45;22.20;34.60
53268;DHT22;39156;51.176;6.738;2023-05-19T11:33:14;22.10;34.70
53268;DHT22;39156;51.176;6.738;2023-05-19T11:35:45;22.10;35.00
53268;DHT22;39156;51.176;6.738;2023-05-19T11:38:13;22.00;35.00
53268;DHT22;39156;51.176;6.738;2023-05-19T11:40:42;21.90;34.90
53268;DHT22;39156;51.176;6.738;2023-05-19T11:43:08;21.80;35.10
53268;DHT22;39156;51.176;6.738;2023-05-19T11:45:34;21.80;35.10
53268;DHT22;39156;51.176;6.738;2023-05-19T11:48:00;21.70;35.10
53268;DHT22;39156;51.176;6.738;2023-05-19T11:50:27;21.70;35.10
53268;DHT22;39156;51.176;6.738;2023-05-19T11:52:54;21.70;35.10
53268;DHT22;39156;51.176;6.738;2023-05-19T11:55:20;21.70;35.30
53268;DHT22;39156;51.176;6.738;2023-05-19T11:57:50;21.60;35.40
53268;DHT22;39156;51.176;6.738;2023-05-19T12:00:27;21.70;35.20
53268;DHT22;39156;51.176;6.738;2023-05-19T12:02:53;21.60;35.30
53268;DHT22;39156;51.176;6.738;2023-05-19T12:05:22;21.60;35.20
53268;DHT22;39156;51.176;6.738;2023-05-19T12:07:48;21.50;35.20
53268;DHT22;39156;51.176;6.738;2023-05-19T12:10:25;21.40;35.60
53268;DHT22;39156;51.176;6.738;2023-05-19T12:12:53;21.40;35.30
53268;DHT22;39156;51.176;6.738;2023-05-19T12:15:20;21.30;35.20
53268;DHT22;39156;51.176;6.738;2023-05-19T12:17:57;21.30;35.20
53268;DHT22;39156;51.176;6.738;2023-05-19T12:20:25;21.30;35.70
53268;DHT22;39156;51.176;6.738;2023-05-19T12:22:56;21.30;35.50
53268;DHT22;39156;51.176;6.738;2023-05-19T12:25:22;21.30;35.30
53268;DHT22;39156;51.176;6.738;2023-05-19T12:27:48;21.30;36.00
53268;DHT22;39156;51.176;6.738;2023-05-19T12:30:17;21.40;35.90
53268;DHT22;39156;51.176;6.738;2023-05-19T12:32:43;21.60;35.60
53268;DHT22;39156;51.176;6.738;2023-05-19T12:35:10;21.50;35.40
53268;DHT22;39156;51.176;6.738;2023-05-19T12:37:40;21.50;35.50
53268;DHT22;39156;51.176;6.738;2023-05-19T12:40:07;21.60;35.10
53268;DHT22;39156;51.176;6.738;2023-05-19T12:42:33;21.60;35.50
53268;DHT22;39156;51.176;6.738;2023-05-19T12:45:01;21.60;35.60
53268;DHT22;39156;51.176;6.738;2023-05-19T12:47:30;21.70;35.50
53268;DHT22;39156;51.176;6.738;2023-05-19T12:50:07;21.70;35.30
53268;DHT22;39156;51.176;6.738;2023-05-19T12:52:46;21.70;35.70
53268;DHT22;39156;51.176;6.738;2023-05-19T12:55:13;21.70;35.40
53268;DHT22;39156;51.176;6.738;2023-05-19T12:57:41;21.60;35.40
53268;DHT22;39156;51.176;6.738;2023-05-19T13:00:16;21.60;35.90
53268;DHT22;39156;51.176;6.738;2023-05-19T13:03:04;21.60;36.10
53268;DHT22;39156;51.176;6.738;2023-05-19T13:05:33;21.60;36.30
53268;DHT22;39156;51.176;6.738;2023-05-19T13:08:09;21.60;36.20
53268;DHT22;39156;51.176;6.738;2023-05-19T13:10:36;21.60;35.80
53268;DHT22;39156;51.176;6.738;2023-05-19T13:13:04;21.60;35.60
53268;DHT22;39156;51.176;6.738;2023-05-19T13:15:32;21.50;35.90
53268;DHT22;39156;51.176;6.738;2023-05-19T13:18:00;21.40;35.60
53268;DHT22;39156;51.176;6.738;2023-05-19T13:20:27;21.50;36.00
53268;DHT22;39156;51.176;6.738;2023-05-19T13:22:53;21.50;36.00
53268;DHT22;39156;51.176;6.738;2023-05-19T13:25:19;21.50;36.00
53268;DHT22;39156;51.176;6.738;2023-05-19T13:27:46;21.40;35.90
53268;DHT22;39156;51.176;6.738;2023-05-19T13:30:13;21.40;35.90
53268;DHT22;39156;51.176;6.738;2023-05-19T13:32:41;21.40;36.00
53268;DHT22;39156;51.176;6.738;2023-05-19T13:35:08;21.30;36.00
53268;DHT22;39156;51.176;6.738;2023-05-19T13:37:34;21.30;36.10
53268;DHT22;39156;51.176;6.738;2023-05-19T13:40:00;21.40;36.80
53268;DHT22;39156;51.176;6.738;2023-05-19T13:42:26;21.40;36.10
53268;DHT22;39156;51.176;6.738;2023-05-19T13:44:55;21.40;36.10
53268;DHT22;39156;51.176;6.738;2023-05-19T13:47:24;21.30;35.90
53268;DHT22;39156;51.176;6.738;2023-05-19T13:49:50;21.30;36.40
53268;DHT22;39156;51.176;6.738;2023-05-19T13:52:20;21.40;36.60
53268;DHT22;39156;51.176;6.738;2023-05-19T13:54:46;21.30;36.40
53268;DHT22;39156;51.176;6.738;2023-05-19T13:57:16;21.30;36.20
53268;DHT22;39156;51.176;6.738;2023-05-19T13:59:42;21.30;36.20
53268;DHT22;39156;51.176;6.738;2023-05-19T14:02:08;21.30;36.30
53268;DHT22;39156;51.176;6.738;2023-05-19T14:04:37;21.20;36.50
53268;DHT22;39156;51.176;6.738;2023-05-19T14:07:07;21.20;36.40
53268;DHT22;39156;51.176;6.738;2023-05-19T14:09:34;21.10;36.80
53268;DHT22;39156;51.176;6.738;2023-05-19T14:12:00;21.00;36.70
53268;DHT22;39156;51.176;6.738;2023-05-19T14:14:26;21.00;36.70
53268;DHT22;39156;51.176;6.738;2023-05-19T14:16:52;21.00;36.80
53268;DHT22;39156;51.176;6.738;2023-05-19T14:19:17;21.00;37.00
53268;DHT22;39156;51.176;6.738;2023-05-19T14:21:43;20.90;37.10
53268;DHT22;39156;51.176;6.738;2023-05-19T14:24:09;21.00;37.20
53268;DHT22;39156;51.176;6.738;2023-05-19T14:26:35;21.00;36.80
53268;DHT22;39156;51.176;6.738;2023-05-19T14:29:01;21.00;36.80
53268;DHT22;39156;51.176;6.738;2023-05-19T14:31:26;21.00;37.10
53268;DHT22;39156;51.176;6.738;2023-05-19T14:33:52;21.00;37.00
53268;DHT22;39156;51.176;6.738;2023-05-19T14:36:18;21.00;37.00
53268;DHT22;39156;51.176;6.738;2023-05-19T14:38:44;21.00;36.80
53268;DHT22;39156;51.176;6.738;2023-05-19T14:41:09;21.00;37.10
53268;DHT22;39156;51.176;6.738;2023-05-19T14:43:35;21.00;36.80
53268;DHT22;39156;51.176;6.738;2023-05-19T14:46:01;20.90;37.50
53268;DHT22;39156;51.176;6.738;2023-05-19T14:48:26;20.90;36.80
53268;DHT22;39156;51.176;6.738;2023-05-19T14:50:52;20.90;36.70
53268;DHT22;39156;51.176;6.738;2023-05-19T14:53:18;20.90;36.90
53268;DHT22;39156;51.176;6.738;2023-05-19T14:55:46;21.00;36.80
53268;DHT22;39156;51.176;6.738;2023-05-19T14:58:13;20.90;36.70
53268;DHT22;39156;51.176;6.738;2023-05-19T15:00:38;20.90;36.60
53268;DHT22;39156;51.176;6.738;2023-05-19T15:03:05;20.80;36.70
53268;DHT22;39156;51.176;6.738;2023-05-19T15:05:31;20.70;36.80
53268;DHT22;39156;51.176;6.738;2023-05-19T15:07:56;20.80;36.80
53268;DHT22;39156;51.176;6.738;2023-05-19T15:10:22;20.70;36.80
53268;DHT22;39156;51.176;6.738;2023-05-19T15:12:49;20.70;36.60
53268;DHT22;39156;51.176;6.738;2023-05-19T15:15:15;20.70;36.70
53268;DHT22;39156;51.176;6.738;2023-05-19T15:17:41;20.70;36.70
53268;DHT22;39156;51.176;6.738;2023-05-19T15:20:07;20.70;36.60
53268;DHT22;39156;51.176;6.738;2023-05-19T15:22:33;20.70;36.90
53268;DHT22;39156;51.176;6.738;2023-05-19T15:24:59;20.70;36.90
53268;DHT22;39156;51.176;6.738;2023-05-19T15:27:26;20.70;36.30
53268;DHT22;39156;51.176;6.738;2023-05-19T15:29:51;20.70;36.40
53268;DHT22;39156;51.176;6.738;2023-05-19T15:32:17;20.70;36.30
53268;DHT22;39156;51.176;6.738;2023-05-19T15:34:43;20.70;36.30
53268;DHT22;39156;51.176;6.738;2023-05-19T15:37:08;20.70;36.20
53268;DHT22;39156;51.176;6.738;2023-05-19T15:39:34;20.70;36.30
53268;DHT22;39156;51.176;6.738;2023-05-19T15:42:00;20.70;36.50
53268;DHT22;39156;51.176;6.738;2023-05-19T15:44:26;20.70;36.60
53268;DHT22;39156;51.176;6.738;2023-05-19T15:46:51;20.70;36.50
53268;DHT22;39156;51.176;6.738;2023-05-19T15:49:20;20.70;36.70
53268;DHT22;39156;51.176;6.738;2023-05-19T15:51:46;20.80;36.20
53268;DHT22;39156;51.176;6.738;2023-05-19T15:54:11;20.70;36.00
53268;DHT22;39156;51.176;6.738;2023-05-19T15:56:37;20.70;36.00
53268;DHT22;39156;51.176;6.738;2023-05-19T15:59:03;20.70;36.10
53268;DHT22;39156;51.176;6.738;2023-05-19T16:01:28;20.70;36.30
53268;DHT22;39156;51.176;6.738;2023-05-19T16:03:54;20.60;36.00
53268;DHT22;39156;51.176;6.738;2023-05-19T16:06:20;20.70;35.70
53268;DHT22;39156;51.176;6.738;2023-05-19T16:08:46;20.70;35.50
53268;DHT22;39156;51.176;6.738;2023-05-19T16:11:11;20.50;35.80
53268;DHT22;39156;51.176;6.738;2023-05-19T16:13:37;20.60;35.90
53268;DHT22;39156;51.176;6.738;2023-05-19T16:16:03;20.50;36.10
53268;DHT22;39156;51.176;6.738;2023-05-19T16:18:29;20.50;36.40
53268;DHT22;39156;51.176;6.738;2023-05-19T16:20:55;20.50;36.00
53268;DHT22;39156;51.176;6.738;2023-05-19T16:23:20;20.50;36.00
53268;DHT22;39156;51.176;6.738;2023-05-19T16:25:47;20.50;35.90
53268;DHT22;39156;51.176;6.738;2023-05-19T16:28:12;20.40;36.00